Time;durP1;ratioP1;P1;durP2;ratioP2;P2;SDS_P1;SDS_P2;PMS_P1;PMS_P2;Temp;Humidity;BMP_temperature;BMP_pressure;BME280_temperature;BME280_humidity;BME280_pressure;Samples;Min_cycle;Max_cycle;Signal;HPM_P1;HPM_P2
2022/11/24 00:02:00;;;;;;;5.70;3.30;;;11.60;99.90;;;;;;5032483;28;20186;-71
2022/11/24 00:04:25;;;;;;;12.23;4.40;;;11.70;99.90;;;;;;5050835;28;20520;-71
2022/11/24 00:06:52;;;;;;;5.43;3.57;;;11.60;99.90;;;;;;5033485;28;20602;-71
2022/11/24 00:09:18;;;;;;;8.87;4.30;;;11.70;99.90;;;;;;5049362;28;20283;-71
2022/11/24 00:11:44;;;;;;;5.00;4.50;;;11.70;99.90;;;;;;5051386;28;20837;-71
2022/11/24 00:14:10;;;;;;;5.03;3.27;;;11.70;99.90;;;;;;5051315;28;20411;-71
2022/11/24 00:16:37;;;;;;;10.30;4.40;;;11.70;99.90;;;;;;5050109;28;21076;-71
2022/11/24 00:19:05;;;;;;;5.77;3.63;;;11.60;99.90;;;;;;5051586;28;20182;-71
2022/11/24 00:21:31;;;;;;;5.30;4.13;;;11.60;99.90;;;;;;5052029;28;20408;-71
2022/11/24 00:23:57;;;;;;;7.63;5.13;;;11.70;99.90;;;;;;5055141;28;20580;-71
2022/11/24 00:26:33;;;;;;;11.00;4.70;;;11.80;99.90;;;;;;5036531;28;20412;-71
2022/11/24 00:29:01;;;;;;;10.23;4.37;;;11.60;99.90;;;;;;5054184;28;20420;-71
2022/11/24 00:31:29;;;;;;;8.10;4.10;;;11.60;99.90;;;;;;5054294;28;20456;-71
2022/11/24 00:34:00;;;;;;;7.27;3.90;;;11.60;99.90;;;;;;5054034;28;20437;-71
2022/11/24 00:36:28;;;;;;;9.10;4.00;;;11.60;99.90;;;;;;5054226;28;20419;-71
2022/11/24 00:38:55;;;;;;;11.90;4.30;;;11.60;99.90;;;;;;5054888;28;20488;-71
2022/11/24 00:41:22;;;;;;;6.77;4.20;;;11.60;99.90;;;;;;5054067;28;20404;-71
2022/11/24 00:43:47;;;;;;;6.50;4.03;;;11.70;99.90;;;;;;5054684;28;20452;-71
2022/11/24 00:46:13;;;;;;;9.53;4.33;;;11.70;99.90;;;;;;5054133;28;20430;-71
2022/11/24 00:48:39;;;;;;;7.97;4.00;;;;;;;;;;5053974;28;20485;-71
2022/11/24 00:51:08;;;;;;;6.00;4.10;;;11.60;99.90;;;;;;5054020;28;20195;-71
2022/11/24 00:53:34;;;;;;;5.03;3.80;;;11.70;99.90;;;;;;5053829;28;20410;-71
2022/11/24 00:56:02;;;;;;;8.10;3.90;;;11.70;99.90;;;;;;5053812;28;20412;-71
2022/11/24 00:58:29;;;;;;;10.03;4.00;;;11.60;99.90;;;;;;5052653;28;20435;-71
2022/11/24 01:01:00;;;;;;;7.53;3.80;;;11.70;99.90;;;;;;5054683;28;20444;-71
2022/11/24 01:03:25;;;;;;;7.90;3.83;;;11.70;99.90;;;;;;5053696;28;20458;-71
2022/11/24 01:05:51;;;;;;;7.83;3.57;;;11.70;99.90;;;;;;5036466;28;20408;-71
2022/11/24 01:08:17;;;;;;;10.83;3.57;;;11.70;99.90;;;;;;5032044;28;20222;-71
2022/11/24 01:10:42;;;;;;;8.20;3.27;;;11.70;99.90;;;;;;5031883;28;20188;-71
2022/11/24 01:13:08;;;;;;;8.13;3.23;;;11.70;99.90;;;;;;5034347;28;20220;-71
2022/11/24 01:15:37;;;;;;;12.73;4.10;;;11.70;99.90;;;;;;5033566;28;20916;-71
2022/11/24 01:18:03;;;;;;;8.37;3.70;;;11.70;99.90;;;;;;5034350;28;20206;-71
2022/11/24 01:20:30;;;;;;;8.60;3.60;;;11.70;99.90;;;;;;5032301;28;20828;-71
2022/11/24 01:22:55;;;;;;;7.63;3.00;;;11.60;99.90;;;;;;5034169;28;20467;-71
2022/11/24 01:25:21;;;;;;;6.83;3.40;;;11.70;99.90;;;;;;5033621;28;20408;-71
2022/11/24 01:27:47;;;;;;;7.27;3.33;;;11.60;99.90;;;;;;5033167;28;20180;-71
2022/11/24 01:30:12;;;;;;;12.67;3.73;;;11.70;99.90;;;;;;5013103;28;20676;-71
2022/11/24 01:32:38;;;;;;;9.57;3.73;;;11.60;99.90;;;;;;5013122;28;20179;-71
2022/11/24 01:35:05;;;;;;;6.93;3.40;;;11.40;99.90;;;;;;5016406;28;20316;-71
2022/11/24 01:37:31;;;;;;;9.47;3.33;;;11.50;99.90;;;;;;5033213;28;20189;-71
2022/11/24 01:39:57;;;;;;;6.63;3.40;;;11.40;99.90;;;;;;5032295;28;20504;-71
2022/11/24 01:42:24;;;;;;;6.97;3.43;;;11.40;99.90;;;;;;5020069;28;20523;-71
2022/11/24 01:45:21;;;;;;;8.13;3.40;;;11.40;99.90;;;;;;5032980;28;20441;-71
2022/11/24 01:47:47;;;;;;;8.03;3.93;;;11.50;99.90;;;;;;5033478;28;20420;-71
2022/11/24 01:50:15;;;;;;;8.80;3.30;;;11.50;99.90;;;;;;5033842;28;20808;-71
2022/11/24 01:52:50;;;;;;;8.13;3.87;;;11.50;99.90;;;;;;5032890;28;20369;-71
2022/11/24 01:55:24;;;;;;;8.10;3.50;;;11.50;99.90;;;;;;5033700;28;20400;-71
2022/11/24 01:57:52;;;;;;;10.07;3.80;;;11.50;99.90;;;;;;5032674;28;20512;-71
2022/11/24 02:00:18;;;;;;;6.10;3.20;;;11.50;99.90;;;;;;5031920;28;20905;-71
2022/11/24 02:02:44;;;;;;;4.83;3.53;;;11.50;99.90;;;;;;5032578;28;20546;-71
2022/11/24 02:05:21;;;;;;;6.53;3.77;;;11.50;99.90;;;;;;5033541;28;20182;-71
2022/11/24 02:07:48;;;;;;;8.20;4.00;;;11.50;99.90;;;;;;5044384;28;20478;-71
2022/11/24 02:10:14;;;;;;;4.90;3.23;;;11.50;99.90;;;;;;5053231;28;20759;-71
2022/11/24 02:12:45;;;;;;;4.23;3.43;;;11.50;99.90;;;;;;5052388;28;20529;-71
2022/11/24 02:15:15;;;;;;;11.80;3.83;;;11.60;99.90;;;;;;5035301;28;20480;-71
2022/11/24 02:17:41;;;;;;;6.03;3.50;;;11.40;99.90;;;;;;5052035;28;20411;-71
2022/11/24 02:20:09;;;;;;;6.33;4.10;;;11.40;99.90;;;;;;5052744;28;20416;-71
2022/11/24 02:23:04;;;;;;;8.40;3.53;;;11.40;99.90;;;;;;5052036;28;20217;-71
2022/11/24 02:26:00;;;;;;;5.60;3.47;;;11.30;99.90;;;;;;5051284;28;20430;-71
2022/11/24 02:28:29;;;;;;;7.40;3.97;;;11.40;99.90;;;;;;5051175;28;21018;-71
2022/11/24 02:30:56;;;;;;;6.03;3.77;;;11.30;99.90;;;;;;5052788;28;20403;-71
2022/11/24 02:33:24;;;;;;;9.10;3.67;;;11.30;99.90;;;;;;5052687;28;20416;-71
2022/11/24 02:35:50;;;;;;;9.53;4.13;;;11.40;99.90;;;;;;5052305;28;20864;-71
2022/11/24 02:38:16;;;;;;;4.87;3.60;;;11.50;99.90;;;;;;5052687;28;20518;-71
2022/11/24 02:40:48;;;;;;;7.57;3.63;;;11.50;99.90;;;;;;5033953;28;21357;-71
2022/11/24 02:43:19;;;;;;;9.47;3.43;;;11.50;99.90;;;;;;5051189;28;20208;-71
2022/11/24 02:45:45;;;;;;;6.70;3.97;;;11.50;99.90;;;;;;5050959;28;20463;-71
2022/11/24 02:48:12;;;;;;;4.80;3.80;;;11.40;99.90;;;;;;5051519;28;20954;-71
2022/11/24 02:50:37;;;;;;;10.20;5.90;;;11.40;99.90;;;;;;5051414;28;20173;-71
2022/11/24 02:53:03;;;;;;;5.47;4.23;;;11.40;99.90;;;;;;5052291;28;20421;-71
2022/11/24 02:55:29;;;;;;;6.83;3.90;;;11.40;99.90;;;;;;5051373;28;20215;-71
2022/11/24 02:57:55;;;;;;;7.63;4.10;;;11.50;99.90;;;;;;5050994;28;20185;-71
2022/11/24 03:00:21;;;;;;;7.67;3.90;;;11.40;99.90;;;;;;5051556;28;20431;-71
2022/11/24 03:02:46;;;;;;;6.80;3.70;;;11.40;99.90;;;;;;4999965;28;20201;-71
2022/11/24 03:05:12;;;;;;;7.20;3.60;;;11.50;99.90;;;;;;5051372;28;20771;-71
2022/11/24 03:07:38;;;;;;;8.63;4.40;;;11.60;99.90;;;;;;5050289;28;20364;-71
2022/11/24 03:10:04;;;;;;;6.53;4.10;;;11.50;99.90;;;;;;5051226;28;20194;-71
2022/11/24 03:12:30;;;;;;;7.30;3.97;;;11.40;99.90;;;;;;5050213;28;20634;-71
2022/11/24 03:14:56;;;;;;;6.57;4.17;;;11.40;99.90;;;;;;5052276;28;20450;-70
2022/11/24 03:17:21;;;;;;;8.83;4.57;;;11.30;99.90;;;;;;5051483;28;20186;-71
2022/11/24 03:19:47;;;;;;;6.30;4.20;;;11.20;99.90;;;;;;5051331;28;20734;-71
2022/11/24 03:22:13;;;;;;;5.40;3.53;;;11.30;99.90;;;;;;5052232;28;20184;-71
2022/11/24 03:24:39;;;;;;;12.50;4.73;;;11.40;99.90;;;;;;5050394;28;20185;-71
2022/11/24 03:27:05;;;;;;;6.30;3.77;;;11.30;99.90;;;;;;5052269;28;20446;-71
2022/11/24 03:29:30;;;;;;;8.77;4.13;;;11.30;99.90;;;;;;5050150;28;20223;-71
2022/11/24 03:31:57;;;;;;;7.90;4.13;;;11.30;99.90;;;;;;5052012;28;20205;-71
2022/11/24 03:34:23;;;;;;;7.53;4.17;;;11.30;99.90;;;;;;5051969;28;20235;-71
2022/11/24 03:36:49;;;;;;;6.27;3.80;;;11.30;99.90;;;;;;5050345;28;20412;-71
2022/11/24 03:39:14;;;;;;;8.20;4.00;;;11.40;99.90;;;;;;5051895;28;20185;-71
2022/11/24 03:41:40;;;;;;;8.53;3.93;;;11.50;99.90;;;;;;5051068;28;20264;-71
2022/11/24 03:44:06;;;;;;;10.17;4.17;;;11.50;99.90;;;;;;5051851;28;20448;-71
2022/11/24 03:46:32;;;;;;;7.60;4.30;;;11.50;99.90;;;;;;5051065;28;20645;-71
2022/11/24 03:48:57;;;;;;;8.33;4.37;;;11.30;99.90;;;;;;5051792;28;20171;-71
2022/11/24 03:51:23;;;;;;;7.97;4.40;;;11.40;99.90;;;;;;5051794;28;20415;-71
2022/11/24 03:53:49;;;;;;;10.07;4.23;;;11.50;99.90;;;;;;5051342;28;20185;-71
2022/11/24 03:56:15;;;;;;;8.57;3.57;;;11.60;99.90;;;;;;5052852;28;20250;-71
2022/11/24 03:58:40;;;;;;;9.63;4.40;;;11.60;99.90;;;;;;5053969;28;20224;-71
2022/11/24 04:01:06;;;;;;;4.33;3.70;;;11.50;99.90;;;;;;5054203;28;20801;-71
2022/11/24 04:03:32;;;;;;;7.00;4.30;;;11.60;99.90;;;;;;5054377;28;20280;-71
2022/11/24 04:05:58;;;;;;;5.97;3.83;;;11.30;99.90;;;;;;5055481;28;20187;-69
2022/11/24 04:08:23;;;;;;;9.13;4.27;;;11.20;99.90;;;;;;5055126;28;20233;-70
2022/11/24 04:10:51;;;;;;;5.73;4.03;;;11.10;99.90;;;;;;5054647;28;20179;-70
2022/11/24 04:13:19;;;;;;;8.90;3.97;;;11.10;99.90;;;;;;5049237;28;20185;-70
2022/11/24 04:15:45;;;;;;;4.97;3.70;;;11.20;99.90;;;;;;5034901;28;20502;-70
2022/11/24 04:18:12;;;;;;;6.53;3.70;;;11.20;99.90;;;;;;5035419;28;20472;-70
2022/11/24 04:20:38;;;;;;;9.23;4.10;;;11.40;99.90;;;;;;5034411;28;20409;-71
2022/11/24 04:23:04;;;;;;;8.73;4.40;;;11.40;99.90;;;;;;5055166;28;20455;-70
2022/11/24 04:25:30;;;;;;;10.37;4.67;;;11.40;99.90;;;;;;5054189;28;20480;-71
2022/11/24 04:27:56;;;;;;;12.23;4.17;;;11.50;99.90;;;;;;5053737;28;20427;-71
2022/11/24 04:30:23;;;;;;;7.30;4.20;;;11.50;99.90;;;;;;5054904;28;20974;-70
2022/11/24 04:32:49;;;;;;;5.60;3.97;;;11.40;99.90;;;;;;5052811;28;20609;-70
2022/11/24 04:35:16;;;;;;;3.90;3.30;;;11.40;99.90;;;;;;5036999;28;20404;-71
2022/11/24 04:37:42;;;;;;;9.80;4.03;;;11.40;99.90;;;;;;5054354;28;20431;-70
2022/11/24 04:40:08;;;;;;;9.57;4.20;;;11.40;99.90;;;;;;5054749;28;20874;-70
2022/11/24 04:42:34;;;;;;;8.80;4.90;;;11.30;99.90;;;;;;5053987;28;20176;-71
2022/11/24 04:45:00;;;;;;;9.40;3.50;;;11.40;99.90;;;;;;5054864;28;20419;-70
2022/11/24 04:47:26;;;;;;;9.10;4.87;;;11.50;99.90;;;;;;5054746;28;20416;-70
2022/11/24 04:49:52;;;;;;;9.27;3.93;;;11.50;99.90;;;;;;5053699;28;20330;-70
2022/11/24 04:52:20;;;;;;;6.43;3.17;;;11.50;99.90;;;;;;5053978;28;20202;-70
2022/11/24 04:54:47;;;;;;;15.00;4.50;;;11.50;99.90;;;;;;5053586;28;20409;-71
2022/11/24 04:57:24;;;;;;;7.57;2.87;;;11.50;99.90;;;;;;5054596;28;20406;-70
2022/11/24 04:59:51;;;;;;;13.63;4.97;;;11.60;99.90;;;;;;5049477;28;20511;-70
2022/11/24 05:02:17;;;;;;;10.80;4.17;;;11.50;99.90;;;;;;5054630;28;20421;-70
2022/11/24 05:04:43;;;;;;;8.03;3.10;;;11.30;99.90;;;;;;5053665;28;20424;-70
2022/11/24 05:07:13;;;;;;;9.70;3.60;;;11.30;99.90;;;;;;5053795;28;20952;-70
2022/11/24 05:10:33;;;;;;;6.27;3.27;;;11.40;99.90;;;;;;5053061;28;20745;-71
2022/11/24 05:12:29;;;;;;;4.90;3.00;;;11.50;99.90;;;;;;5054260;28;20484;-70
2022/11/24 05:14:59;;;;;;;9.70;4.00;;;11.60;99.90;;;;;;5053563;28;20408;-70
2022/11/24 05:17:28;;;;;;;5.40;3.20;;;11.40;99.90;;;;;;5053133;28;20438;-70
2022/11/24 05:19:54;;;;;;;9.50;4.27;;;11.40;99.90;;;;;;5053105;28;20404;-70
2022/11/24 05:22:19;;;;;;;9.13;3.00;;;11.50;99.90;;;;;;5053827;28;20768;-70
2022/11/24 05:24:45;;;;;;;6.23;3.43;;;11.30;99.90;;;;;;5001627;28;20646;-70
2022/11/24 05:27:11;;;;;;;9.07;3.50;;;11.50;99.90;;;;;;5054117;28;20254;-70
2022/11/24 05:29:36;;;;;;;10.27;3.93;;;11.50;99.90;;;;;;5052310;28;20181;-71
2022/11/24 05:32:03;;;;;;;8.33;4.83;;;11.40;99.90;;;;;;5053991;28;20185;-70
2022/11/24 05:34:32;;;;;;;9.37;4.00;;;11.40;99.90;;;;;;5053700;28;20732;-70
2022/11/24 05:37:01;;;;;;;10.47;4.03;;;11.40;99.90;;;;;;5052489;28;20430;-70
2022/11/24 05:39:31;;;;;;;9.77;4.60;;;11.50;99.90;;;;;;5053784;28;20490;-70
2022/11/24 05:41:57;;;;;;;10.17;3.90;;;11.50;99.90;;;;;;5034493;28;20939;-70
2022/11/24 05:44:23;;;;;;;8.20;3.33;;;11.50;99.90;;;;;;5053684;28;20538;-70
2022/11/24 05:46:49;;;;;;;9.50;4.67;;;11.40;99.90;;;;;;5051934;28;20432;-70
2022/11/24 05:49:14;;;;;;;7.60;3.83;;;11.40;99.90;;;;;;5035905;28;20232;-70
2022/11/24 05:51:40;;;;;;;12.13;4.80;;;11.40;99.90;;;;;;5032959;28;20174;-71
2022/11/24 05:54:06;;;;;;;18.33;5.07;;;11.50;99.90;;;;;;5033725;28;20614;-70
2022/11/24 05:56:31;;;;;;;8.53;3.97;;;11.50;99.90;;;;;;5038658;28;20189;-71
2022/11/24 05:58:57;;;;;;;7.37;3.53;;;11.60;99.90;;;;;;5047767;28;21166;-71
2022/11/24 06:01:23;;;;;;;8.23;3.43;;;11.60;99.90;;;;;;5050423;28;20214;-70
2022/11/24 06:03:48;;;;;;;11.67;3.20;;;11.70;99.90;;;;;;5052558;28;20232;-70
2022/11/24 06:06:14;;;;;;;7.90;4.60;;;11.70;99.90;;;;;;5051898;28;20184;-71
2022/11/24 06:08:40;;;;;;;11.00;3.73;;;11.70;99.90;;;;;;5033153;28;20681;-69
2022/11/24 06:11:39;;;;;;;8.20;4.40;;;11.70;99.90;;;;;;5042771;28;20594;-69
2022/11/24 06:13:57;;;;;;;6.50;4.00;;;11.80;99.90;;;;;;5040764;28;20189;-69
2022/11/24 06:16:23;;;;;;;9.33;3.70;;;11.80;99.90;;;;;;5052843;28;20811;-69
2022/11/24 06:18:51;;;;;;;11.87;4.33;;;11.80;99.90;;;;;;5048983;28;20261;-69
2022/11/24 06:21:17;;;;;;;12.37;5.73;;;11.80;99.90;;;;;;5053561;28;20242;-69
2022/11/24 06:23:46;;;;;;;7.70;3.90;;;11.70;99.90;;;;;;5051998;28;20467;-69
2022/11/24 06:26:11;;;;;;;8.20;3.70;;;11.70;99.90;;;;;;5052971;28;20570;-69
2022/11/24 06:28:37;;;;;;;7.40;3.53;;;11.70;99.90;;;;;;5052495;28;20400;-70
2022/11/24 06:31:04;;;;;;;10.80;4.17;;;11.80;99.90;;;;;;5050110;28;20226;-69
2022/11/24 06:33:32;;;;;;;11.13;4.70;;;11.90;99.90;;;;;;5035486;28;20634;-69
2022/11/24 06:36:01;;;;;;;13.40;5.07;;;11.70;99.90;;;;;;5052510;28;20455;-69
2022/11/24 06:38:26;;;;;;;12.10;4.00;;;11.70;99.90;;;;;;5051421;28;20493;-69
2022/11/24 06:41:05;;;;;;;9.80;3.73;;;11.80;99.90;;;;;;5051109;28;20466;-68
2022/11/24 06:43:31;;;;;;;9.73;4.90;;;11.60;99.90;;;;;;5053095;28;20534;-69
2022/11/24 06:45:58;;;;;;;10.50;5.30;;;11.70;99.90;;;;;;5017205;28;20414;-69
2022/11/24 06:48:25;;;;;;;9.53;4.20;;;11.70;99.90;;;;;;5051690;28;20424;-68
2022/11/24 06:50:51;;;;;;;8.87;3.80;;;11.70;99.90;;;;;;5041778;28;20912;-69
2022/11/24 06:53:17;;;;;;;10.60;4.10;;;11.70;99.90;;;;;;5032983;28;20415;-69
2022/11/24 06:55:44;;;;;;;7.87;4.10;;;11.70;99.90;;;;;;5032285;28;20401;-69
2022/11/24 06:58:09;;;;;;;17.83;6.27;;;11.70;99.90;;;;;;5014934;28;20432;-70
2022/11/24 07:00:36;;;;;;;10.77;4.77;;;11.80;99.90;;;;;;5052256;28;20427;-69
2022/11/24 07:03:02;;;;;;;7.90;3.60;;;11.80;99.90;;;;;;5052043;28;20236;-68
2022/11/24 07:05:27;;;;;;;11.70;6.13;;;11.80;99.90;;;;;;5051700;28;20465;-69
2022/11/24 07:07:53;;;;;;;8.37;4.23;;;11.90;99.90;;;;;;5052000;28;20226;-68
2022/11/24 07:10:19;;;;;;;8.77;6.40;;;11.80;99.90;;;;;;5051478;28;20549;-70
2022/11/24 07:12:44;;;;;;;13.40;6.03;;;11.90;99.90;;;;;;5051955;28;20189;-69
2022/11/24 07:15:10;;;;;;;7.47;4.23;;;11.80;99.90;;;;;;5046672;28;20247;-69
2022/11/24 07:17:39;;;;;;;9.47;3.80;;;11.80;99.90;;;;;;5048079;28;20193;-69
2022/11/24 07:20:07;;;;;;;7.53;5.10;;;11.80;99.90;;;;;;5046626;28;20413;-69
2022/11/24 07:22:33;;;;;;;6.47;3.80;;;11.80;99.90;;;;;;5051510;28;20424;-68
2022/11/24 07:24:58;;;;;;;10.37;5.90;;;11.80;99.90;;;;;;5051553;28;20404;-69
2022/11/24 07:27:26;;;;;;;11.13;4.30;;;11.60;99.90;;;;;;5034686;28;20414;-69
2022/11/24 07:29:52;;;;;;;8.70;4.03;;;11.60;99.90;;;;;;5051413;28;20572;-70
2022/11/24 07:32:17;;;;;;;8.23;3.23;;;11.60;99.90;;;;;;5057901;28;20422;-69
2022/11/24 07:34:43;;;;;;;7.10;3.60;;;;;;;;;;5058170;28;20196;-69
2022/11/24 07:37:09;;;;;;;9.07;3.40;;;11.70;99.90;;;;;;5059216;28;20619;-68
2022/11/24 07:39:35;;;;;;;8.10;4.13;;;11.70;99.90;;;;;;5057918;28;20517;-69
2022/11/24 07:42:00;;;;;;;6.30;3.13;;;11.70;99.90;;;;;;5058562;28;20175;-69
2022/11/24 07:44:26;;;;;;;7.77;3.10;;;11.80;99.90;;;;;;5057158;28;20291;-69
2022/11/24 07:46:52;;;;;;;4.67;4.07;;;11.70;99.90;;;;;;5057320;28;20700;-69
2022/11/24 07:49:18;;;;;;;4.43;2.40;;;11.80;99.90;;;;;;5053145;28;20235;-69
2022/11/24 07:51:44;;;;;;;5.10;4.60;;;11.80;99.90;;;;;;5053541;28;20412;-69
2022/11/24 07:54:10;;;;;;;6.40;4.60;;;11.70;99.90;;;;;;5050883;28;20423;-69
2022/11/24 07:56:36;;;;;;;5.43;4.00;;;11.90;99.90;;;;;;5039098;28;20186;-69
2022/11/24 07:59:02;;;;;;;8.10;4.50;;;11.70;99.90;;;;;;5038200;28;20422;-68
2022/11/24 08:01:27;;;;;;;8.00;5.37;;;11.70;99.90;;;;;;5039147;28;20584;-68
2022/11/24 08:03:53;;;;;;;6.20;3.40;;;11.60;99.90;;;;;;5046655;28;20892;-69
2022/11/24 08:06:19;;;;;;;4.60;3.17;;;11.60;99.90;;;;;;5058795;28;20610;-69
2022/11/24 08:08:45;;;;;;;4.87;3.17;;;11.60;99.90;;;;;;5043252;28;20329;-69
2022/11/24 08:11:14;;;;;;;7.10;4.03;;;11.60;99.90;;;;;;5020970;28;20463;-68
2022/11/24 08:13:40;;;;;;;6.10;4.10;;;11.60;99.90;;;;;;5021438;28;20435;-68
2022/11/24 08:16:08;;;;;;;5.77;3.23;;;11.70;99.90;;;;;;5038108;28;20462;-68
2022/11/24 08:18:37;;;;;;;4.53;3.70;;;11.70;99.90;;;;;;5038428;28;20778;-69
2022/11/24 08:21:03;;;;;;;3.70;2.80;;;11.70;99.90;;;;;;5055624;28;20420;-69
2022/11/24 08:23:30;;;;;;;4.43;4.03;;;11.70;99.90;;;;;;5038553;28;20456;-69
2022/11/24 08:25:56;;;;;;;4.57;4.10;;;11.70;99.90;;;;;;5040354;28;20423;-69
2022/11/24 08:28:22;;;;;;;9.57;3.70;;;11.70;99.90;;;;;;5043418;28;20427;-69
2022/11/24 08:30:48;;;;;;;4.97;2.80;;;11.70;99.90;;;;;;5038536;28;20443;-69
2022/11/24 08:33:14;;;;;;;3.20;2.90;;;11.50;99.90;;;;;;5038546;28;20928;-69
2022/11/24 08:35:40;;;;;;;3.10;2.73;;;11.50;99.90;;;;;;5038502;28;20676;-69
2022/11/24 08:38:06;;;;;;;5.70;2.97;;;11.50;99.90;;;;;;5055424;28;20189;-69
2022/11/24 08:40:32;;;;;;;3.50;3.30;;;11.40;99.90;;;;;;5056899;28;20195;-69
2022/11/24 08:43:01;;;;;;;2.80;2.43;;;11.50;99.90;;;;;;5055836;28;20492;-70
2022/11/24 08:45:29;;;;;;;4.23;2.50;;;11.50;99.90;;;;;;5043215;28;20511;-70
2022/11/24 08:47:56;;;;;;;5.33;2.53;;;11.50;99.90;;;;;;5047386;28;20492;-69
2022/11/24 08:50:23;;;;;;;5.60;2.53;;;11.50;99.90;;;;;;5053431;28;20429;-70
2022/11/24 08:52:53;;;;;;;2.73;2.23;;;11.50;99.90;;;;;;5052248;28;20487;-70
2022/11/24 08:55:19;;;;;;;4.93;2.53;;;11.50;99.90;;;;;;5037333;28;20403;-69
2022/11/24 08:57:45;;;;;;;3.20;2.70;;;11.50;99.90;;;;;;5054059;28;20415;-69
2022/11/24 09:00:12;;;;;;;5.97;2.90;;;11.50;99.90;;;;;;5054701;28;20502;-69
2022/11/24 09:02:38;;;;;;;5.97;2.70;;;11.60;99.90;;;;;;5037080;28;20629;-69
2022/11/24 09:05:04;;;;;;;4.20;2.83;;;11.60;99.90;;;;;;5036647;28;20560;-69
2022/11/24 09:07:29;;;;;;;3.30;3.07;;;11.60;99.90;;;;;;5054511;28;20670;-69
2022/11/24 09:09:57;;;;;;;2.70;2.50;;;11.60;99.90;;;;;;5036397;28;20537;-69
2022/11/24 09:12:23;;;;;;;3.50;2.27;;;11.60;99.90;;;;;;5054891;28;20169;-69
2022/11/24 09:14:48;;;;;;;4.10;2.60;;;11.70;99.90;;;;;;5053253;28;20893;-70
2022/11/24 09:17:14;;;;;;;3.17;2.97;;;11.70;99.90;;;;;;5055085;28;20648;-69
2022/11/24 09:19:40;;;;;;;3.30;3.10;;;11.70;99.90;;;;;;5054695;28;20637;-69
2022/11/24 09:22:05;;;;;;;5.57;2.70;;;11.70;99.90;;;;;;5053980;28;20268;-69
2022/11/24 09:24:31;;;;;;;4.80;4.50;;;11.70;99.90;;;;;;5054555;28;20684;-69
2022/11/24 09:26:57;;;;;;;4.00;2.57;;;11.70;99.90;;;;;;5054223;28;20660;-69
2022/11/24 09:29:23;;;;;;;3.87;3.67;;;11.70;99.90;;;;;;5054497;28;20617;-70
2022/11/24 09:31:49;;;;;;;4.60;3.53;;;11.60;99.90;;;;;;5053822;28;20179;-71
2022/11/24 09:34:15;;;;;;;4.07;3.03;;;11.70;99.90;;;;;;5054728;28;20422;-70
2022/11/24 09:36:41;;;;;;;3.10;2.90;;;11.70;99.90;;;;;;5054406;28;20185;-70
2022/11/24 09:39:08;;;;;;;3.33;2.87;;;11.60;99.90;;;;;;5053642;28;20947;-69
2022/11/24 09:42:23;;;;;;;6.43;3.73;;;11.60;99.90;;;;;;5054220;28;20420;-70
2022/11/24 09:44:57;;;;;;;3.93;3.57;;;11.60;99.90;;;;;;5020131;28;20978;-71
2022/11/24 09:47:29;;;;;;;7.73;4.73;;;11.60;99.90;;;;;;5053252;28;20432;-70
2022/11/24 09:50:03;;;;;;;8.70;4.50;;;11.60;99.90;;;;;;5053525;28;20395;-70
2022/11/24 09:52:39;;;;;;;8.23;4.40;;;11.60;99.90;;;;;;5036475;28;20887;-70
2022/11/24 09:55:30;;;;;;;4.33;3.90;;;11.70;99.90;;;;;;5052884;28;20793;-70
2022/11/24 09:58:37;;;;;;;6.23;3.83;;;11.70;99.90;;;;;;5053439;28;20430;-70
2022/11/24 10:01:30;;;;;;;4.23;3.20;;;11.70;99.90;;;;;;5024148;28;20516;-70
2022/11/24 10:03:56;;;;;;;7.73;4.00;;;11.80;99.90;;;;;;5049845;28;20471;-70
2022/11/24 10:06:31;;;;;;;6.70;6.10;;;11.80;99.90;;;;;;5053527;28;20421;-69
2022/11/24 10:09:28;;;;;;;8.10;4.83;;;11.80;99.90;;;;;;5052836;28;20885;-70
2022/11/24 10:12:17;;;;;;;5.17;3.50;;;11.80;99.90;;;;;;5053103;28;20488;-70
2022/11/24 10:15:09;;;;;;;7.30;4.80;;;11.90;99.90;;;;;;5052594;28;20444;-70
2022/11/24 10:17:44;;;;;;;4.90;3.60;;;11.90;99.90;;;;;;5053665;28;20424;-70
2022/11/24 10:20:47;;;;;;;6.87;4.03;;;11.90;99.90;;;;;;5052964;28;20400;-70
2022/11/24 10:23:24;;;;;;;7.60;4.63;;;12.00;99.90;;;;;;5052694;28;20493;-70
2022/11/24 10:25:58;;;;;;;6.60;4.67;;;12.00;99.90;;;;;;5052888;28;20410;-72
2022/11/24 10:28:34;;;;;;;7.07;3.90;;;12.00;99.90;;;;;;5053434;28;20753;-70
2022/11/24 10:31:21;;;;;;;6.23;5.00;;;12.00;99.90;;;;;;5051227;28;20497;-70
2022/11/24 10:33:47;;;;;;;6.20;3.67;;;12.00;99.90;;;;;;5035151;28;20399;-70
2022/11/24 10:36:33;;;;;;;6.07;4.77;;;12.00;99.90;;;;;;5034327;28;20893;-70
2022/11/24 10:39:14;;;;;;;7.70;5.40;;;12.00;99.90;;;;;;5038576;28;20203;-70
2022/11/24 10:42:17;;;;;;;6.87;4.27;;;12.00;99.90;;;;;;5053198;28;20461;-70
2022/11/24 10:44:43;;;;;;;7.63;7.13;;;12.00;99.90;;;;;;5052992;28;20537;-70
2022/11/24 10:47:21;;;;;;;10.20;5.97;;;12.00;99.90;;;;;;5052326;28;20444;-69
2022/11/24 10:50:24;;;;;;;4.87;3.47;;;12.00;99.90;;;;;;5052711;28;20888;-69
2022/11/24 10:53:25;;;;;;;5.97;4.87;;;12.00;99.90;;;;;;5036951;28;20425;-69
2022/11/24 10:55:53;;;;;;;4.97;3.93;;;12.00;99.90;;;;;;5010344;28;20415;-69
2022/11/24 10:58:23;;;;;;;5.00;4.60;;;12.00;99.90;;;;;;5052824;28;20784;-69
2022/11/24 11:00:49;;;;;;;7.63;4.27;;;12.00;99.90;;;;;;5051737;28;20884;-69
2022/11/24 11:03:21;;;;;;;9.03;4.20;;;12.00;99.90;;;;;;5051764;28;20499;-69
2022/11/24 11:05:51;;;;;;;6.50;5.00;;;12.10;99.90;;;;;;5051999;28;20400;-69
2022/11/24 11:08:21;;;;;;;7.57;3.90;;;12.10;99.90;;;;;;5052018;28;20602;-69
2022/11/24 11:10:49;;;;;;;5.67;4.10;;;12.20;99.90;;;;;;5052776;28;20420;-69
2022/11/24 11:13:30;;;;;;;10.00;4.30;;;12.30;99.90;;;;;;5052099;28;20408;-69
2022/11/24 11:15:57;;;;;;;4.30;3.90;;;12.40;99.90;;;;;;5051952;28;20884;-70
2022/11/24 11:18:47;;;;;;;4.37;3.70;;;12.40;99.90;;;;;;5030480;28;20429;-70
2022/11/24 11:21:28;;;;;;;4.00;3.20;;;12.50;99.90;;;;;;5029709;28;20506;-69
2022/11/24 11:23:54;;;;;;;8.50;3.20;;;12.60;99.90;;;;;;5029182;28;20487;-71
2022/11/24 11:26:29;;;;;;;5.53;5.00;;;12.60;99.90;;;;;;5011285;28;20458;-70
2022/11/24 11:29:07;;;;;;;5.00;2.90;;;12.70;99.90;;;;;;5009938;28;20410;-70
2022/11/24 11:31:36;;;;;;;6.40;5.30;;;12.80;99.90;;;;;;5010548;28;20434;-69
2022/11/24 11:34:08;;;;;;;6.03;3.60;;;12.80;99.90;;;;;;5010082;28;20426;-70
2022/11/24 11:36:43;;;;;;;5.70;5.20;;;12.90;99.90;;;;;;5010419;28;20899;-69
2022/11/24 11:39:31;;;;;;;4.83;4.10;;;12.90;99.90;;;;;;5009853;28;20515;-70
2022/11/24 11:42:26;;;;;;;4.27;3.40;;;13.00;99.90;;;;;;5009891;28;20507;-70
2022/11/24 11:45:10;;;;;;;6.37;4.30;;;12.90;99.90;;;;;;5010228;28;20566;-69
2022/11/24 11:47:43;;;;;;;7.53;4.03;;;12.90;99.90;;;;;;5010376;28;20466;-69
2022/11/24 11:50:15;;;;;;;5.30;3.60;;;12.90;99.90;;;;;;5024506;28;20413;-69
2022/11/24 11:53:02;;;;;;;9.37;6.00;;;12.90;99.90;;;;;;5032055;28;20424;-69
2022/11/24 11:55:39;;;;;;;10.10;3.33;;;12.90;99.90;;;;;;5046591;28;20466;-69
2022/11/24 11:58:30;;;;;;;6.60;3.93;;;13.00;99.90;;;;;;5051536;28;20477;-69
2022/11/24 12:01:23;;;;;;;5.60;5.10;;;13.10;99.90;;;;;;5051813;28;20399;-71
2022/11/24 12:04:23;;;;;;;4.70;3.47;;;13.20;99.90;;;;;;5052170;28;20791;-70
2022/11/24 12:06:58;;;;;;;5.63;4.53;;;13.30;99.90;;;;;;5051611;28;20458;-69
2022/11/24 12:09:51;;;;;;;7.57;2.80;;;13.30;99.90;;;;;;5051137;28;20446;-70
2022/11/24 12:12:55;;;;;;;6.73;4.00;;;13.30;99.90;;;;;;5051487;28;20410;-69
2022/11/24 12:15:40;;;;;;;10.37;3.70;;;13.30;99.90;;;;;;5033523;28;20424;-69
2022/11/24 12:18:20;;;;;;;3.17;2.63;;;13.30;99.90;;;;;;5053781;28;20413;-70
2022/11/24 12:20:58;;;;;;;9.17;3.50;;;13.30;99.90;;;;;;5055854;28;20785;-69
2022/11/24 12:23:25;;;;;;;8.93;3.60;;;13.40;99.90;;;;;;5056006;28;20540;-70
2022/11/24 12:26:04;;;;;;;7.70;3.60;;;13.40;99.90;;;;;;5055708;28;20418;-70
2022/11/24 12:28:51;;;;;;;9.77;4.20;;;13.50;99.90;;;;;;5055413;28;20456;-70
2022/11/24 12:31:49;;;;;;;6.27;3.10;;;13.60;99.90;;;;;;5054939;28;20393;-70
2022/11/24 12:34:52;;;;;;;6.60;3.57;;;13.70;99.90;;;;;;5037121;28;20464;-70
2022/11/24 12:37:36;;;;;;;4.83;3.27;;;13.80;99.90;;;;;;5054129;28;20706;-70
2022/11/24 12:40:21;;;;;;;4.33;2.90;;;13.80;99.90;;;;;;5053794;28;20435;-70
2022/11/24 12:43:25;;;;;;;4.30;2.67;;;13.90;99.90;;;;;;5055387;28;20879;-70
2022/11/24 12:45:50;;;;;;;9.00;3.10;;;14.00;99.90;;;;;;4974263;28;20419;-69
2022/11/24 12:48:39;;;;;;;9.47;3.50;;;14.10;99.90;;;;;;4973698;28;20848;-69
2022/11/24 12:51:14;;;;;;;6.53;4.00;;;14.10;99.90;;;;;;4973731;28;20255;-70
2022/11/24 12:53:42;;;;;;;4.27;3.50;;;14.20;99.90;;;;;;4974282;28;20432;-70
2022/11/24 12:56:12;;;;;;;6.70;3.50;;;14.20;99.90;;;;;;4973555;28;20404;-69
2022/11/24 12:59:12;;;;;;;5.70;3.60;;;14.30;99.90;;;;;;4974148;28;20415;-69
2022/11/24 13:01:44;;;;;;;8.30;5.07;;;14.30;99.90;;;;;;4974209;28;20423;-69
2022/11/24 13:04:33;;;;;;;11.07;3.70;;;14.40;99.90;;;;;;4973607;28;20462;-69